METAR (acronimo di METeorological Air Report) è un messaggio meteo emesso nella maggior parte dei casi in ambito aeroportuale

GMME - Rabat, Morocco
Ultimo Aggiornamento: Domenica 27 Settembre 2020 18:30 CEST
Parzialmente Nuvoloso
Parzialmente Nuvoloso
 Wind from Nord-Nord-Est
Vento: Nord-Nord-Est 17 km/h
Temperatura: 23°C
Punto di Rugiada: 17°C
Umidità: 69%
Barometro: 1014 hPa
Nuvole: Parzialmente Nuvoloso
Visibilità: 8 km
Nuvole nel Dettaglio: Parzialmente Nuvoloso 610 m
2020/09/27 16:30 GMME 271630Z 02009KT 8000 SCT020 23/17 Q1014 NOSIG
DTTA - Tunis-Carthage International Airport, Tunisia
Ultimo Aggiornamento: Domenica 27 Settembre 2020 18:30 CEST
Prevalentemente Nuvoloso
Prevalentemente Nuvoloso
 Wind from Ovest
Vento: Ovest 35 km/h
Temperatura: 22°C
Punto di Rugiada: 9°C
Umidità: 44%
Barometro: 1009 hPa
Nuvole: Prevalentemente Nuvoloso
Visibilità: 10 km
Nuvole nel Dettaglio: Qualche Nuvola 701 m
Prevalentemente Nuvoloso 1402 m
2020/09/27 16:30 DTTA 271630Z 26019KT 9999 FEW023 BKN046 22/09 Q1009
HSSS - Khartoum, Sudan
Ultimo Aggiornamento: Domenica 27 Settembre 2020 18:30 CEST
Sereno
Sereno
 Wind from Sud
Vento: Sud 13 km/h
Temperatura: 32°C
Heat Index: 33°C
Punto di Rugiada: 18°C
Umidità: 43%
Barometro: 1009 hPa
Condizioni: Sereno
Visibilità: superiore a 10 km
2020/09/27 16:30 HSSS 271630Z 18007KT CAVOK 32/18 Q1009 NOSIG
 
DAAG - Algiers Houari Boumediene Airport, Algeria
Ultimo Aggiornamento: Domenica 27 Settembre 2020 18:30 CEST
Qualche Nuvola
Qualche Nuvola
 Wind from Est
Vento: Est 13 km/h
Temperatura: 21°C
Punto di Rugiada: 15°C
Umidità: 69%
Barometro: 1013 hPa
Nuvole: Qualche Nuvola
Visibilità: 10 km
Nuvole nel Dettaglio: Qualche Nuvola 701 m
2020/09/27 16:30 DAAG 271630Z 10007KT 080V140 9999 FEW023TCU 21/15 Q1013
HECA - Cairo International Airport, Egypt
Ultimo Aggiornamento: Domenica 27 Settembre 2020 18:30 CEST
Sereno
Sereno
 Wind from Nord-Nord-Est
Vento: Nord-Nord-Est 31 km/h
Temperatura: 30°C
Heat Index: 30°C
Punto di Rugiada: 16°C
Umidità: 43%
Barometro: 1013 hPa
Condizioni: Sereno
Visibilità: superiore a 10 km
2020/09/27 16:30 HECA 271630Z 02017KT CAVOK 30/16 Q1013 NOSIG
FTTJ - N’Djamena, Chad
Ultimo Aggiornamento: Domenica 27 Settembre 2020 18:00 CEST
Qualche Nuvola
Qualche Nuvola
 Wind from Sud-Ovest
Vento: Sud-Ovest 9 km/h
Temperatura: 32°C
Heat Index: 37°C
Punto di Rugiada: 23°C
Umidità: 59%
Barometro: 1006 hPa
Nuvole: Qualche Nuvola
Visibilità: 10 km
Nuvole nel Dettaglio: Qualche Nuvola 1006 m
Qualche Nuvola 1219 m
2020/09/27 16:00 FTTJ 271600Z 22005KT 220V300 9999 FEW033 FEW040CB 32/23 Q1006 NOSIG
 
FEFF - Bangui, Central African Republic
Ultimo Aggiornamento: Domenica 27 Settembre 2020 18:00 CEST
Qualche Nuvola
Qualche Nuvola
 Wind from Sud-Ovest
Vento: Sud-Ovest 7 km/h
Temperatura: 31°C
Heat Index: 35°C
Punto di Rugiada: 22°C
Umidità: 59%
Barometro: 1006 hPa
Nuvole: Qualche Nuvola
Visibilità: 10 km
Nuvole nel Dettaglio: Parzialmente Nuvoloso 610 m
Qualche Nuvola 1219 m
2020/09/27 16:00 FEFF 271600Z 23004KT 9999 SCT020 FEW040CB 31/22 Q1006 TEMPO TS
HBBA - Bujumbura, Burundi
Ultimo Aggiornamento: Domenica 27 Settembre 2020 06:00 CEST
Dati non Recenti
Prevalentemente Nuvoloso
Prevalentemente Nuvoloso
 Wind from Nord
Vento: Nord 15 km/h
Temperatura: 20°C
Punto di Rugiada: 19°C
Umidità: 94%
Barometro: 1012 hPa
Nuvole: Prevalentemente Nuvoloso
Visibilità: 10 km
Nuvole nel Dettaglio: Qualche Nuvola 457 m
Prevalentemente Nuvoloso 3048 m
2020/09/27 04:00 HBBA 270400Z 36008KT 9999 FEW015 BKN100 20/19 Q1012 NOSIG
FMEE - Saint-Denis, Reunion
Ultimo Aggiornamento: Domenica 27 Settembre 2020 18:30 CEST
Nuvoloso
Nuvoloso
 Wind from Sud-Est
Vento: Sud-Est 13 km/h
Temperatura: 23°C
Punto di Rugiada: 18°C
Umidità: 74%
Barometro: 1018 hPa
Nuvole: Nuvoloso
Visibilità: 10 km
Nuvole nel Dettaglio: Prevalentemente Nuvoloso 610 m
Prevalentemente Nuvoloso 945 m
Nuvoloso 2134 m
2020/09/27 16:30 FMEE 271630Z AUTO 13007KT 9999 BKN020/// BKN031/// OVC070/// 23/18 Q1018 NOSIG
 
DIAP - Abidjan, Ivory coast
Ultimo Aggiornamento: Domenica 27 Settembre 2020 18:30 CEST
Parzialmente Nuvoloso
Parzialmente Nuvoloso
 Wind from Sud-Ovest
Vento: Sud-Ovest 17 km/h
Temperatura: 27°C
Heat Index: 31°C
Punto di Rugiada: 24°C
Umidità: 84%
Barometro: 1009 hPa
Nuvole: Parzialmente Nuvoloso
Visibilità: 10 km
Nuvole nel Dettaglio: Parzialmente Nuvoloso 366 m
2020/09/27 16:30 DIAP 271630Z 22009KT 190V250 9999 SCT012 27/24 Q1009 NOSIG
GUCY - Conakry, Guinea
Ultimo Aggiornamento: Domenica 27 Settembre 2020 18:00 CEST
Prevalentemente Nuvoloso
Prevalentemente Nuvoloso
 Wind from Sud-Ovest
Vento: Sud-Ovest 19 km/h
Temperatura: 29°C
Heat Index: 32°C
Punto di Rugiada: 23°C
Umidità: 70%
Barometro: 1009 hPa
Nuvole: Prevalentemente Nuvoloso
Visibilità: 10 km
Nuvole nel Dettaglio: Parzialmente Nuvoloso 457 m
Prevalentemente Nuvoloso 3353 m
2020/09/27 16:00 GUCY 271600Z 22010KT 9999 SCT015 BKN110 29/23 Q1009 NOSIG
GABS - Bamako, Mali
Ultimo Aggiornamento: Domenica 27 Settembre 2020 18:30 CEST
Qualche Nuvola
Qualche Nuvola
 Wind from Sud
Vento: Sud 6 km/h
Temperatura: 34°C
Heat Index: 37°C
Punto di Rugiada: 21°C
Umidità: 47%
Barometro: 1011 hPa
Nuvole: Qualche Nuvola
Visibilità: 10 km
Nuvole nel Dettaglio: Qualche Nuvola 549 m
2020/09/27 16:30 GABS 271630Z 18003KT 130V250 9999 FEW018 34/21 Q1011 NOSIG
 
DRRN - Niamey, Niger
Ultimo Aggiornamento: Domenica 27 Settembre 2020 18:00 CEST
Temporale Leggero, Pioggia, Parzialmente Nuvoloso
Temporale Leggero, Pioggia, Parzialmente Nuvoloso
 Wind from Nord-Ovest
Vento: Nord-Ovest 17 km/h
Temperatura: 31°C
Heat Index: 32°C
Punto di Rugiada: 17°C
Umidità: 43%
Barometro: 1007 hPa
Condizioni: Temporale Leggero, Pioggia
Nuvole: Parzialmente Nuvoloso
Visibilità: 8 km
Nuvole nel Dettaglio: Parzialmente Nuvoloso 610 m
Parzialmente Nuvoloso 914 m
2020/09/27 16:00 DRRN 271600Z 31009KT 280V350 8000 -TSRA SCT020 SCT030CB 31/17 Q1007 TEMPO 3500 TSRA
DFFD - Ouagadougou, Burkina Faso
Ultimo Aggiornamento: Domenica 27 Settembre 2020 18:00 CEST
Qualche Nuvola
Qualche Nuvola
 Wind from Sud-Ovest
Vento: Sud-Ovest 7 km/h
Temperatura: 33°C
Heat Index: 38°C
Punto di Rugiada: 23°C
Umidità: 56%
Barometro: 1008 hPa
Nuvole: Qualche Nuvola
Visibilità: 10 km
Nuvole nel Dettaglio: Parzialmente Nuvoloso 792 m
Qualche Nuvola 1219 m
2020/09/27 16:00 DFFD 271600Z 23004KT 200V280 9999 SCT026 FEW040CB 33/23 Q1008 TEMPO TS
DNMM - Lagos, Nigeria
Ultimo Aggiornamento: Domenica 27 Settembre 2020 18:00 CEST
Qualche Nuvola
Qualche Nuvola
 Wind from Ovest-Sud-Ovest
Vento: Ovest-Sud-Ovest 15 km/h
Temperatura: 28°C
Heat Index: 32°C
Punto di Rugiada: 24°C
Umidità: 79%
Barometro: 1010 hPa
Nuvole: Qualche Nuvola
Visibilità: 10 km
Nuvole nel Dettaglio: Parzialmente Nuvoloso 366 m
Qualche Nuvola 610 m
2020/09/27 16:00 DNMM 271600Z 24008KT 9999 SCT012 FEW020CB 28/24 Q1010 NOSIG
 
HKJK - Nairobi Jomo Kenyatta International Airport, Kenya
Ultimo Aggiornamento: Domenica 27 Settembre 2020 17:30 CEST
Parzialmente Nuvoloso
Parzialmente Nuvoloso
 Wind from Nord-Est
Vento: Nord-Est 20 km/h
Temperatura: 25°C
Punto di Rugiada: 11°C
Umidità: 42%
Barometro: 1017 hPa
Nuvole: Parzialmente Nuvoloso
Visibilità: 10 km
Nuvole nel Dettaglio: Parzialmente Nuvoloso 853 m
2020/09/27 15:30 HKJK 271530Z 05011KT 9999 SCT028 25/11 Q1017 NOSIG
FZAA - Kinshasa, Congo
Ultimo Aggiornamento: Domenica 27 Settembre 2020 17:00 CEST
Dati non Recenti
Parzialmente Nuvoloso
Parzialmente Nuvoloso
 Wind from Nord-Ovest
Vento: Nord-Ovest 19 km/h
Temperatura: 31°C
Heat Index: 33°C
Punto di Rugiada: 19°C
Umidità: 49%
Barometro: 1009 hPa
Nuvole: Parzialmente Nuvoloso
Visibilità: 9 km
Nuvole nel Dettaglio: Parzialmente Nuvoloso 671 m
2020/09/27 15:00 FZAA 271500Z 32010KT 9000 SCT022 31/19 Q1009 NOSIG
FLKK - Lusaka, Zambia
Ultimo Aggiornamento: Domenica 27 Settembre 2020 18:00 CEST
Qualche Nuvola
Qualche Nuvola
 Wind from Sud-Est
Vento: Sud-Est 6 km/h
Temperatura: 33°C
Punto di Rugiada: 0°C
Umidità: 12%
Barometro: 1011 hPa
Nuvole: Qualche Nuvola
Visibilità: 9 km
Nuvole nel Dettaglio: Qualche Nuvola 3048 m
2020/09/27 16:00 FLKK 271600Z 14003KT 9000 FEW100 33/00 Q1011
 
FAOR - Johannesburg, South Africa
Ultimo Aggiornamento: Domenica 27 Settembre 2020 18:30 CEST
Sereno
Sereno
 Wind from Ovest-Sud-Ovest
Vento: Ovest-Sud-Ovest 17 km/h
Temperatura: 21°C
Punto di Rugiada: -16°C
Umidità: 7%
Barometro: 1016 hPa
Condizioni: Sereno
Visibilità: superiore a 10 km
2020/09/27 16:30 FAOR 271630Z 24009KT CAVOK 21/M16 Q1016 NOSIG
FACT - Cape Town, South Africa
Ultimo Aggiornamento: Domenica 27 Settembre 2020 18:00 CEST
Qualche Nuvola
Qualche Nuvola
 Wind from Sud-Sud-Est
Vento: Sud-Sud-Est 11 km/h
Temperatura: 14°C
Punto di Rugiada: 6°C
Umidità: 59%
Barometro: 1020 hPa
Nuvole: Qualche Nuvola
Visibilità: 10 km
Nuvole nel Dettaglio: Qualche Nuvola 1158 m
2020/09/27 16:00 FACT 271600Z 15006KT 9999 FEW038 14/06 Q1020 NOSIG
FIMP - Mauritius Sir Seewoosagur Ramgoolam International Airport, Mauritius
Ultimo Aggiornamento: Domenica 27 Settembre 2020 18:00 CEST
Prevalentemente Nuvoloso
Prevalentemente Nuvoloso
 Wind from Est
Vento: Est 20 km/h
Temperatura: 22°C
Punto di Rugiada: 19°C
Umidità: 83%
Barometro: 1019 hPa
Nuvole: Prevalentemente Nuvoloso
Visibilità: 10 km
Nuvole nel Dettaglio: Qualche Nuvola 518 m
Prevalentemente Nuvoloso 1524 m
2020/09/27 16:00 FIMP 271600Z 08011KT 9999 FEW017 BKN050 22/19 Q1019